createdAt,value
2019-03-28T00:02:34.916Z,51.40
2019-03-28T00:05:27.896Z,51.80
2019-03-28T00:08:16.904Z,52.20
2019-03-28T00:14:02.893Z,51.60
2019-03-28T00:19:30.657Z,51.40
2019-03-28T00:22:13.114Z,51.40
2019-03-28T00:24:59.121Z,51.50
2019-03-28T00:27:40.871Z,51.50
2019-03-28T00:30:22.659Z,51.30
2019-03-28T00:33:03.766Z,51.20
2019-03-28T00:35:45.122Z,51.60
2019-03-28T00:38:26.354Z,51.60
2019-03-28T00:41:07.728Z,51.60
2019-03-28T00:43:49.274Z,51.30
2019-03-28T00:46:30.764Z,51.50
2019-03-28T00:49:11.639Z,51.40
2019-03-28T00:51:52.838Z,51.40
2019-03-28T00:54:34.458Z,51.30
2019-03-28T00:57:16.079Z,52.30
2019-03-28T00:59:57.771Z,51.30
2019-03-28T01:02:39.322Z,51.30
2019-03-28T01:05:20.489Z,51.20
2019-03-28T01:08:01.663Z,51.20
2019-03-28T01:10:42.975Z,50.70
2019-03-28T01:13:24.094Z,49.90
2019-03-28T01:16:05.772Z,49.20
2019-03-28T01:18:47.015Z,49.30
2019-03-28T01:21:28.722Z,48.20
2019-03-28T01:24:10.219Z,48.00
2019-03-28T01:26:57.179Z,47.80
2019-03-28T01:29:33.782Z,47.50
2019-03-28T01:35:20.512Z,45.80
2019-03-28T01:38:01.675Z,45.60
2019-03-28T01:40:41.610Z,46.00
2019-03-28T01:43:42.571Z,45.90
2019-03-28T01:46:21.793Z,45.70
2019-03-28T01:49:10.866Z,45.20
2019-03-28T01:55:21.365Z,45.50
2019-03-28T01:58:13.799Z,45.60
2019-03-28T02:01:02.868Z,45.50
2019-03-28T02:03:53.066Z,44.80
2019-03-28T02:12:54.673Z,44.70
2019-03-28T02:15:45.370Z,45.00
2019-03-28T02:18:35.660Z,44.80
2019-03-28T02:21:09.643Z,45.50
2019-03-28T02:23:50.138Z,45.20
2019-03-28T02:26:31.837Z,45.90
2019-03-28T02:29:13.156Z,45.10
2019-03-28T02:31:54.223Z,45.10
2019-03-28T02:34:35.077Z,45.90
2019-03-28T02:37:16.944Z,45.90
2019-03-28T02:39:58.666Z,45.70
2019-03-28T02:42:39.590Z,46.40
2019-03-28T02:45:20.852Z,46.40
2019-03-28T02:48:02.339Z,47.20
2019-03-28T02:50:43.581Z,47.00
2019-03-28T02:53:24.892Z,47.60
2019-03-28T02:56:06.212Z,47.90
2019-03-28T02:58:47.487Z,48.10
2019-03-28T03:01:30.357Z,48.70
2019-03-28T03:04:11.433Z,48.40
2019-03-28T03:06:52.887Z,49.30
2019-03-28T03:09:34.457Z,49.80
2019-03-28T03:12:15.749Z,49.50
2019-03-28T03:14:57.196Z,49.80
2019-03-28T03:17:38.429Z,49.90
2019-03-28T03:20:19.581Z,50.10
2019-03-28T03:23:00.687Z,50.40
2019-03-28T03:25:42.551Z,50.30
2019-03-28T03:28:23.622Z,50.20
2019-03-28T03:31:04.935Z,50.40
2019-03-28T03:33:46.545Z,50.60
2019-03-28T03:36:27.339Z,50.20
2019-03-28T03:39:08.764Z,50.90
2019-03-28T03:41:50.434Z,51.10
2019-03-28T03:44:32.054Z,51.20
2019-03-28T03:47:13.686Z,51.00
2019-03-28T03:49:56.415Z,51.50
2019-03-28T03:52:37.950Z,51.90
2019-03-28T03:55:19.494Z,51.70
2019-03-28T03:58:14.585Z,52.10
2019-03-28T04:00:42.283Z,52.30
2019-03-28T04:03:31.657Z,52.60
2019-03-28T04:06:32.195Z,52.20
2019-03-28T04:09:23.061Z,52.50
2019-03-28T04:12:01.906Z,52.10
2019-03-28T04:17:47.737Z,52.30
2019-03-28T04:20:29.279Z,52.20
2019-03-28T04:23:10.620Z,52.20
2019-03-28T04:25:51.996Z,52.30
2019-03-28T04:28:33.562Z,52.20
2019-03-28T04:31:15.197Z,52.00
2019-03-28T04:33:56.665Z,52.50
2019-03-28T04:36:37.401Z,53.50
2019-03-28T04:39:18.500Z,53.40
2019-03-28T04:42:00.273Z,54.70
2019-03-28T04:44:41.177Z,54.10
2019-03-28T04:47:22.837Z,54.30
2019-03-28T04:50:04.243Z,55.20
2019-03-28T04:52:45.909Z,55.50
2019-03-28T04:55:27.561Z,55.60
2019-03-28T04:58:09.037Z,55.70
2019-03-28T05:00:50.320Z,55.70
2019-03-28T05:03:31.469Z,55.40
2019-03-28T05:06:12.872Z,56.50
2019-03-28T05:08:54.545Z,55.60
2019-03-28T05:11:36.109Z,56.00
2019-03-28T05:14:17.438Z,56.50
2019-03-28T05:16:58.877Z,57.10
2019-03-28T05:19:40.056Z,57.60
2019-03-28T05:22:22.429Z,58.80
2019-03-28T05:25:03.795Z,59.30
2019-03-28T05:27:45.337Z,60.20
2019-03-28T05:30:26.915Z,59.70
2019-03-28T05:33:08.489Z,60.10
2019-03-28T05:35:50.140Z,60.30
2019-03-28T05:38:31.602Z,60.20
2019-03-28T05:41:12.940Z,60.20
2019-03-28T05:43:54.047Z,60.10
2019-03-28T05:46:35.491Z,60.10
2019-03-28T05:49:17.114Z,60.30
2019-03-28T05:51:58.743Z,60.50
2019-03-28T05:54:40.243Z,60.60
2019-03-28T05:57:22.052Z,60.30
2019-03-28T06:00:03.016Z,60.30
2019-03-28T06:02:44.627Z,60.30
2019-03-28T06:05:26.328Z,60.40
2019-03-28T06:08:08.015Z,60.00
2019-03-28T06:10:48.780Z,59.80
2019-03-28T06:13:30.368Z,59.70
2019-03-28T06:16:11.356Z,59.30
2019-03-28T06:18:52.705Z,59.10
2019-03-28T06:21:34.217Z,59.30
2019-03-28T06:24:15.643Z,58.80
2019-03-28T06:26:56.755Z,58.90
2019-03-28T06:29:38.372Z,58.60
2019-03-28T06:32:19.874Z,58.50
2019-03-28T06:35:01.155Z,58.00
2019-03-28T06:37:43.009Z,57.10
2019-03-28T06:40:24.104Z,57.10
2019-03-28T06:43:05.667Z,56.10
2019-03-28T06:45:47.342Z,55.40
2019-03-28T06:48:29.068Z,55.30
2019-03-28T06:51:10.635Z,54.80
2019-03-28T06:53:51.875Z,53.80
2019-03-28T06:56:31.859Z,53.70
2019-03-28T07:02:31.849Z,53.20
2019-03-28T07:11:32.305Z,51.20
2019-03-28T07:14:23.253Z,52.00
2019-03-28T07:17:02.247Z,51.70
2019-03-28T07:22:45.773Z,53.10
2019-03-28T07:25:25.686Z,52.50
2019-03-28T07:28:29.165Z,51.20
2019-03-28T07:31:19.710Z,51.20
2019-03-28T07:33:56.429Z,50.70
2019-03-28T07:39:41.222Z,48.80
2019-03-28T07:42:44.408Z,48.40
2019-03-28T07:45:34.321Z,46.40
2019-03-28T07:51:32.795Z,45.40
2019-03-28T07:54:23.989Z,43.60
2019-03-28T07:57:16.894Z,42.20
2019-03-28T08:00:03.535Z,40.60
2019-03-28T08:02:58.319Z,39.70
2019-03-28T08:08:44.748Z,38.50
2019-03-28T08:11:33.014Z,38.50
2019-03-28T08:14:12.629Z,37.70
2019-03-28T08:17:13.317Z,36.30
2019-03-28T08:22:53.675Z,34.70
2019-03-28T08:25:34.475Z,33.20
2019-03-28T08:28:15.483Z,33.10
2019-03-28T08:30:56.988Z,33.30
2019-03-28T08:33:38.620Z,33.30
2019-03-28T08:36:19.861Z,32.40
2019-03-28T08:39:01.231Z,31.90
2019-03-28T08:41:43.067Z,31.10
2019-03-28T08:44:24.431Z,31.20
2019-03-28T08:47:06.336Z,30.70
2019-03-28T08:49:47.796Z,30.60
2019-03-28T08:52:28.923Z,29.90
2019-03-28T08:55:10.410Z,28.80
2019-03-28T08:57:51.481Z,29.20
2019-03-28T09:00:44.453Z,29.80
2019-03-28T09:03:15.694Z,30.70
2019-03-28T09:05:57.099Z,30.50
2019-03-28T09:08:38.714Z,32.60
2019-03-28T09:11:21.490Z,32.60
2019-03-28T09:14:03.469Z,31.80
2019-03-28T09:16:44.535Z,29.10
2019-03-28T09:19:25.479Z,30.40
2019-03-28T09:22:06.868Z,29.70
2019-03-28T09:24:48.560Z,30.00
2019-03-28T09:27:30.289Z,29.50
2019-03-28T09:30:11.818Z,30.40
2019-03-28T09:32:52.876Z,31.90
2019-03-28T09:35:34.508Z,31.70
2019-03-28T09:38:16.245Z,26.80
2019-03-28T09:40:57.868Z,26.30
2019-03-28T09:43:39.539Z,27.40
2019-03-28T09:46:20.674Z,28.80
2019-03-28T09:49:02.341Z,29.40
2019-03-28T09:51:44.014Z,28.40
2019-03-28T09:54:25.744Z,28.60
2019-03-28T09:57:06.820Z,26.70
2019-03-28T09:59:48.127Z,27.40
2019-03-28T10:02:29.727Z,25.40
2019-03-28T10:05:10.630Z,25.70
2019-03-28T10:07:51.890Z,26.20
2019-03-28T10:10:33.449Z,24.70
2019-03-28T10:13:14.845Z,23.90
2019-03-28T10:15:57.419Z,23.50
2019-03-28T10:18:38.917Z,23.10
2019-03-28T10:21:20.466Z,23.10
2019-03-28T10:24:01.916Z,22.20
2019-03-28T10:26:43.811Z,22.90
2019-03-28T10:29:25.150Z,23.50
2019-03-28T10:32:06.804Z,23.70
2019-03-28T10:34:48.712Z,23.30
2019-03-28T10:37:30.027Z,24.30
2019-03-28T10:40:10.852Z,25.40
2019-03-28T10:42:52.204Z,25.90
2019-03-28T10:45:34.151Z,26.10
2019-03-28T10:48:15.551Z,26.00
2019-03-28T10:50:56.462Z,25.50
2019-03-28T10:53:38.174Z,25.20
2019-03-28T10:56:22.292Z,24.50
2019-03-28T10:59:01.982Z,24.20
2019-03-28T11:01:50.122Z,23.80
2019-03-28T11:04:26.111Z,23.60
2019-03-28T11:07:07.811Z,22.80
2019-03-28T11:09:48.838Z,22.30
2019-03-28T11:12:30.064Z,21.10
2019-03-28T11:15:11.586Z,20.40
2019-03-28T11:17:52.918Z,19.60
2019-03-28T11:20:34.105Z,19.40
2019-03-28T11:23:15.687Z,19.10
2019-03-28T11:25:57.427Z,19.40
2019-03-28T11:28:38.641Z,19.40
2019-03-28T11:31:20.106Z,19.90
2019-03-28T11:34:01.408Z,19.80
2019-03-28T11:36:44.323Z,19.80
2019-03-28T11:39:45.218Z,18.60
2019-03-28T11:45:31.537Z,18.40
2019-03-28T11:48:10.572Z,17.70
2019-03-28T11:54:20.634Z,17.80
2019-03-28T11:57:11.788Z,17.90
2019-03-28T12:00:04.703Z,17.80
2019-03-28T12:02:52.973Z,19.70
2019-03-28T12:05:43.957Z,20.70
2019-03-28T12:08:34.461Z,22.50
2019-03-28T12:14:23.230Z,24.20
2019-03-28T12:20:11.396Z,23.90
2019-03-28T12:23:11.981Z,23.00
2019-03-28T12:26:02.581Z,23.30
2019-03-28T12:31:37.184Z,21.50
2019-03-28T12:34:38.405Z,21.40
2019-03-28T12:43:33.780Z,20.80
2019-03-28T12:46:27.059Z,20.50
2019-03-28T13:04:05.350Z,21.30
2019-03-28T13:06:55.897Z,20.90
2019-03-28T13:12:41.817Z,19.80
2019-03-28T13:21:13.203Z,19.30
2019-03-28T13:23:47.818Z,19.70
2019-03-28T13:26:29.661Z,19.50
2019-03-28T13:29:11.115Z,19.60
2019-03-28T13:31:52.308Z,18.90
2019-03-28T13:34:34.159Z,19.10
2019-03-28T13:37:15.533Z,19.30
2019-03-28T13:39:56.377Z,18.20
2019-03-28T13:42:38.769Z,18.70
2019-03-28T13:45:19.870Z,18.10
2019-03-28T13:48:01.040Z,18.30
2019-03-28T13:50:42.414Z,17.50
2019-03-28T13:53:23.468Z,18.10
2019-03-28T13:56:04.814Z,18.00
2019-03-28T13:58:46.595Z,18.00
2019-03-28T14:01:27.961Z,18.60
2019-03-28T14:04:08.672Z,18.30
2019-03-28T14:06:48.937Z,17.50
2019-03-28T14:15:33.127Z,17.50
2019-03-28T14:18:22.527Z,17.80
2019-03-28T14:21:12.164Z,17.70
2019-03-28T14:24:01.044Z,18.30
2019-03-28T14:26:50.026Z,18.10
2019-03-28T14:29:38.989Z,18.10
2019-03-28T14:35:26.960Z,17.70
2019-03-28T14:38:16.200Z,17.50
2019-03-28T14:49:52.197Z,18.90
2019-03-28T15:01:29.846Z,18.30
2019-03-28T15:04:18.844Z,18.00
2019-03-28T15:07:09.815Z,18.40
2019-03-28T15:09:51.055Z,18.50
2019-03-28T15:12:32.506Z,18.40
2019-03-28T15:15:14.074Z,18.70
2019-03-28T15:17:55.533Z,18.30
2019-03-28T15:20:37.422Z,19.00
2019-03-28T15:23:18.458Z,19.20
2019-03-28T15:26:00.135Z,19.40
2019-03-28T15:28:41.779Z,19.50
2019-03-28T15:31:22.925Z,19.60
2019-03-28T15:34:04.285Z,19.90
2019-03-28T15:36:45.775Z,19.50
2019-03-28T15:39:26.554Z,19.40
2019-03-28T15:42:07.981Z,19.60
2019-03-28T15:44:49.707Z,19.80
2019-03-28T15:47:31.216Z,19.80
2019-03-28T15:50:12.557Z,19.90
2019-03-28T15:52:54.306Z,20.00
2019-03-28T15:55:35.436Z,20.20
2019-03-28T15:58:23.119Z,20.50
2019-03-28T16:01:00.292Z,20.20
2019-03-28T16:03:52.449Z,20.20
2019-03-28T16:06:24.088Z,19.50
2019-03-28T16:09:05.354Z,20.30
2019-03-28T16:11:46.832Z,19.50
2019-03-28T16:14:27.987Z,19.20
2019-03-28T16:17:08.766Z,19.20
2019-03-28T16:19:50.693Z,19.40
2019-03-28T16:22:31.524Z,19.40
2019-03-28T16:25:11.889Z,19.30
2019-03-28T16:28:00.766Z,19.20
2019-03-28T16:34:06.270Z,19.30
2019-03-28T16:42:43.513Z,19.60
2019-03-28T16:45:32.442Z,19.80
2019-03-28T16:51:20.872Z,19.80
2019-03-28T16:54:10.080Z,20.00
2019-03-28T17:00:45.833Z,20.30
2019-03-28T17:03:34.716Z,20.40
2019-03-28T17:06:15.677Z,20.40
2019-03-28T17:08:57.360Z,20.60
2019-03-28T17:11:38.464Z,20.40
2019-03-28T17:14:19.652Z,20.40
2019-03-28T17:17:01.022Z,20.40
2019-03-28T17:19:42.906Z,20.50
2019-03-28T17:22:24.258Z,20.70
2019-03-28T17:25:05.503Z,21.00
2019-03-28T17:27:47.659Z,21.20
2019-03-28T17:30:28.612Z,21.00
2019-03-28T17:33:09.537Z,21.20
2019-03-28T17:35:50.989Z,21.40
2019-03-28T17:38:31.828Z,21.20
2019-03-28T17:41:12.940Z,21.20
2019-03-28T17:43:54.356Z,21.20
2019-03-28T17:46:35.485Z,21.30
2019-03-28T17:49:16.789Z,21.20
2019-03-28T17:51:58.096Z,21.20
2019-03-28T17:54:39.522Z,21.30
2019-03-28T17:57:21.055Z,21.50
2019-03-28T17:59:51.255Z,21.30
2019-03-28T18:02:21.478Z,21.50
2019-03-28T18:04:51.585Z,21.40
2019-03-28T18:07:21.795Z,21.80
2019-03-28T18:09:52.495Z,22.30
2019-03-28T18:12:22.602Z,22.10
2019-03-28T18:14:53.043Z,22.10
2019-03-28T18:17:23.178Z,21.90
2019-03-28T18:19:53.351Z,20.60
2019-03-28T18:22:23.488Z,21.00
2019-03-28T18:24:53.894Z,21.00
2019-03-28T18:27:24.071Z,21.00
2019-03-28T18:29:54.488Z,21.00
2019-03-28T18:32:24.629Z,21.00
2019-03-28T18:35:05.099Z,20.90
2019-03-28T18:37:26.575Z,21.00
2019-03-28T18:39:56.984Z,20.90
2019-03-28T18:42:27.078Z,21.10
2019-03-28T18:44:57.527Z,21.10
2019-03-28T18:47:27.651Z,21.10
2019-03-28T18:49:57.811Z,20.80
2019-03-28T18:52:27.996Z,20.90
2019-03-28T18:54:58.184Z,20.80
2019-03-28T18:57:28.585Z,21.00
2019-03-28T18:59:58.757Z,21.10
2019-03-28T19:02:28.881Z,20.80
2019-03-28T19:04:59.029Z,21.20
2019-03-28T19:07:29.483Z,21.20
2019-03-28T19:09:59.701Z,21.40
2019-03-28T19:12:29.873Z,21.50
2019-03-28T19:15:00.030Z,21.50
2019-03-28T19:17:30.172Z,21.90
2019-03-28T19:20:00.600Z,20.90
2019-03-28T19:22:31.034Z,21.60
2019-03-28T19:25:01.445Z,21.90
2019-03-28T19:27:31.623Z,22.30
2019-03-28T19:30:01.771Z,22.70
2019-03-28T19:32:31.846Z,22.80
2019-03-28T19:35:03.289Z,23.20
2019-03-28T19:37:33.681Z,23.50
2019-03-28T19:40:06.748Z,23.50
2019-03-28T19:42:36.168Z,23.80
2019-03-28T19:45:06.663Z,24.10
2019-03-28T19:47:36.849Z,24.30
2019-03-28T19:50:08.332Z,24.40
2019-03-28T19:52:38.429Z,24.50
2019-03-28T19:55:10.501Z,25.20
2019-03-28T19:57:40.680Z,25.30
2019-03-28T20:00:11.174Z,25.60
2019-03-28T20:02:41.661Z,26.10
2019-03-28T20:05:12.840Z,26.80
2019-03-28T20:07:45.853Z,26.40
2019-03-28T20:10:18.589Z,25.90
2019-03-28T20:12:49.226Z,26.80
2019-03-28T20:15:19.577Z,26.50
2019-03-28T20:17:49.724Z,26.50
2019-03-28T20:20:20.934Z,26.60
2019-03-28T20:22:51.381Z,27.10
2019-03-28T20:25:21.553Z,27.40
2019-03-28T20:27:51.722Z,27.40
2019-03-28T20:30:22.168Z,27.40
2019-03-28T20:32:52.577Z,27.40
2019-03-28T20:35:22.951Z,27.40
2019-03-28T20:37:53.158Z,27.40
2019-03-28T20:40:24.081Z,27.60
2019-03-28T20:42:54.961Z,27.80
2019-03-28T20:45:27.071Z,27.80
2019-03-28T20:47:57.227Z,27.80
2019-03-28T20:50:31.209Z,27.60
2019-03-28T20:52:59.281Z,27.70
2019-03-28T20:55:29.422Z,27.70
2019-03-28T20:57:59.747Z,27.50
2019-03-28T21:00:41.691Z,27.70
2019-03-28T21:03:11.943Z,27.60
2019-03-28T21:05:42.386Z,27.20
2019-03-28T21:08:13.034Z,27.10
2019-03-28T21:10:43.173Z,26.40
2019-03-28T21:13:13.961Z,26.90
2019-03-28T21:15:44.371Z,27.00
2019-03-28T21:18:15.344Z,27.10
2019-03-28T21:20:45.481Z,27.20
2019-03-28T21:23:16.039Z,27.50
2019-03-28T21:25:46.170Z,27.60
2019-03-28T21:28:16.624Z,27.70
2019-03-28T21:30:47.967Z,27.70
2019-03-28T21:33:18.853Z,27.70
2019-03-28T21:35:49.311Z,27.90
2019-03-28T21:38:19.460Z,28.00
2019-03-28T21:40:49.613Z,28.00
2019-03-28T21:43:19.759Z,28.00
2019-03-28T21:45:50.039Z,28.00
2019-03-28T21:48:20.436Z,28.30
2019-03-28T21:50:51.207Z,27.70
2019-03-28T21:53:21.339Z,28.40
2019-03-28T21:55:55.406Z,28.40
2019-03-28T21:58:23.227Z,28.40
2019-03-28T22:00:53.376Z,28.50
2019-03-28T22:03:23.542Z,28.40
2019-03-28T22:05:53.665Z,28.30
2019-03-28T22:08:24.114Z,28.30
2019-03-28T22:10:54.259Z,28.30
2019-03-28T22:13:24.627Z,28.30
2019-03-28T22:15:55.148Z,28.10
2019-03-28T22:18:25.518Z,27.80
2019-03-28T22:20:55.684Z,28.30
2019-03-28T22:23:25.816Z,28.30
2019-03-28T22:25:56.273Z,28.90
2019-03-28T22:28:26.463Z,29.20
2019-03-28T22:30:56.652Z,29.00
2019-03-28T22:33:26.786Z,29.10
2019-03-28T22:35:56.956Z,28.80
2019-03-28T22:38:27.186Z,28.70
2019-03-28T22:40:57.393Z,28.80
2019-03-28T22:43:27.520Z,28.90
2019-03-28T22:45:57.667Z,28.90
2019-03-28T22:48:28.147Z,29.30
2019-03-28T22:50:58.312Z,28.70
2019-03-28T22:53:28.491Z,29.50
2019-03-28T22:55:58.955Z,30.20
2019-03-28T22:58:29.156Z,30.50
2019-03-28T23:00:59.875Z,30.70
2019-03-28T23:03:30.056Z,30.50
2019-03-28T23:06:00.259Z,31.10
2019-03-28T23:08:30.397Z,31.20
2019-03-28T23:11:00.835Z,31.40
2019-03-28T23:13:30.991Z,31.90
2019-03-28T23:16:01.281Z,32.20
2019-03-28T23:18:31.447Z,32.70
2019-03-28T23:21:01.663Z,33.20
2019-03-28T23:23:31.762Z,34.80
2019-03-28T23:26:02.057Z,35.20
2019-03-28T23:28:32.175Z,34.50
2019-03-28T23:31:03.309Z,35.80
2019-03-28T23:33:33.444Z,36.00
2019-03-28T23:36:03.692Z,36.30
2019-03-28T23:38:34.120Z,36.50
2019-03-28T23:41:04.876Z,36.80
2019-03-28T23:43:35.866Z,37.40
2019-03-28T23:46:06.285Z,37.30
2019-03-28T23:48:36.403Z,37.20
2019-03-28T23:51:06.538Z,37.20
2019-03-28T23:53:36.694Z,38.40
2019-03-28T23:56:06.939Z,39.30
2019-03-28T23:58:37.085Z,40.60
